x

Settlement Point, Gbi (spgf1) Weather Station

3:00am - Sat 22nd Nov 2014 All times are EST. -5 hours from GMT.

  • Wind
    17mph, 20mph gusts
  • Air Temp 72°f
  • Sea Pressure 1022.3mb
  • Settlement Point, Gbi
  • Settlement Point, Gbi

More Historic Weather Station data

Upgrade to MSW Pro to gain access to the past 30 days of data for over 8000 Wavebouys and Weather Stations around the globe.

Join Pro

Comparision Forecast

View Surf forecast
   
Sat 11/22 3:00am 17 20 mph 1022.3mb 72f
2:00am 20 21 mph 1022.5mb 72f
1:00am 22 23 mph 1022.7mb 72f
12:00am 21 22 mph 1023.2mb 72f
Fri 11/21 11:00pm 22 23 mph 1023.6mb 71f
10:00pm 18 20 mph 1023.9mb 72f
9:00pm 21 22 mph 1023.5mb 72f
8:00pm 22 25 mph 1023.2mb 72f
7:00pm 22 24 mph 1023.2mb 71f
6:00pm 25 28 mph 1022.7mb 70f
5:00pm 25 28 mph 1022.5mb 69f
4:00pm 26 31 mph 1022.5mb 68f
3:00pm 26 30 mph 1022.3mb 68f
2:00pm 29 32 mph 1022.1mb 70f
1:00pm 28 30 mph 1022.3mb 69f
12:00pm 26 31 mph 1023.6mb 69f
11:00am 24 26 mph 1023.9mb 69f
10:00am 26 29 mph 1023.6mb 69f
9:00am 24 26 mph 1023.4mb 69f
8:00am 26 31 mph 1022.6mb 69f
7:00am 24 26 mph 1021.9mb 69f
6:00am 22 24 mph 1021.4mb 69f
5:00am 20 22 mph 1021.1mb 69f
4:00am 16 18 mph 1020.8mb 73f
3:00am 15 17 mph 1020.6mb 72f
2:00am 17 20 mph 1020.9mb 72f
1:00am 18 21 mph 1021.1mb 72f
12:00am 20 22 mph 1021.4mb 72f
Thu 11/20 11:00pm 21 22 mph 1021.9mb 72f
10:00pm 20 22 mph 1022.2mb 72f
9:00pm 22 24 mph 1022mb 72f
8:00pm 22 24 mph 1021.8mb 72f
7:00pm 23 25 mph 1021.5mb 72f
6:00pm 23 26 mph 1020.9mb 72f
5:00pm 21 23 mph 1020.8mb 72f
4:00pm 21 22 mph 1020.4mb 72f
3:00pm 21 22 mph 1020.2mb 71f
2:00pm 22 23 mph 1020.5mb 71f
1:00pm 21 23 mph 1021mb 71f
12:00pm 22 26 mph 1022mb 71f
11:00am 22 24 mph 1022.6mb 71f
10:00am 22 24 mph 1023mb 72f
9:00am 23 26 mph 1022.9mb 72f
8:00am 23 28 mph 1022.4mb 72f
7:00am 22 23 mph 1021.8mb 71f
6:00am 18 21 mph 1021.4mb 72f
5:00am 20 22 mph 1021.1mb 72f
4:00am 15 17 mph 1021.3mb 71f
3:00am 18 21 mph 1021.3mb 71f
2:00am 17 18 mph 1021.3mb 71f
1:00am 18 20 mph 1021.7mb 71f
12:00am 17 18 mph 1022.1mb 71f
Wed 11/19 11:00pm 20 21 mph 1022.4mb 70f
10:00pm 18 21 mph 1022.7mb 70f
9:00pm 18 21 mph 1022.7mb 70f
8:00pm 20 23 mph 1022.1mb 70f
7:00pm 21 24 mph 1022.2mb 70f
6:00pm 22 24 mph 1022.2mb 69f
5:00pm 22 26 mph 1022.1mb 68f
4:00pm 24 28 mph 1021.9mb 67f
3:00pm 20 22 mph 1021.9mb 67f
2:00pm 22 23 mph 1022.1mb 66f
1:00pm 21 24 mph 1022.2mb 67f
12:00pm 21 25 mph 1023.2mb 68f
11:00am 24 26 mph 1024mb 68f
10:00am 21 23 mph 1024.3mb 68f
9:00am 21 24 mph 1024.1mb 67f
8:00am 25 29 mph 1023.4mb 65f
7:00am 25 29 mph 1022.8mb 68f
6:00am 25 28 mph 1022.2mb 67f
5:00am 24 26 mph 1021.5mb 68f
4:00am 21 23 mph 1021.3mb 68f
3:00am 25 32 mph 1021.3mb 68f
2:00am 23 25 mph 1021.1mb 68f
1:00am 25 29 mph 1021.8mb 67f
12:00am 25 29 mph 1022.2mb 66f
Tue 11/18 11:00pm 24 28 mph 1022.2mb 68f
10:00pm 24 28 mph 1022.2mb 68f
9:00pm 26 30 mph 1021.8mb 68f
8:00pm 26 30 mph 1021.2mb 69f
7:00pm 28 30 mph 1021.1mb 69f
6:00pm 25 30 mph 1020mb 70f
5:00pm 26 28 mph 1019.3mb 71f
4:00pm 20 23 mph 1018.5mb 73f
3:00pm 21 22 mph 1018.3mb 73f
2:00pm 21 22 mph 1018.2mb 73f
1:00pm 17 20 mph 1017.9mb 76f
12:00pm 14 15 mph 1018.5mb 77f
11:00am 14 15 mph 1019mb 77f
10:00am 13 15 mph 1019.3mb 77f